createdAt,value
2019-06-01T00:01:40.383Z,69.34
2019-06-01T00:04:08.984Z,68.87
2019-06-01T00:06:37.105Z,68.89
2019-06-01T00:09:06.455Z,69.36
2019-06-01T00:11:34.580Z,69.48
2019-06-01T00:14:04.466Z,71.82
2019-06-01T00:16:32.811Z,71.86
2019-06-01T00:19:01.938Z,72.24
2019-06-01T00:21:29.863Z,72.95
2019-06-01T00:23:57.920Z,73.38
2019-06-01T00:26:25.613Z,73.21
2019-06-01T00:28:53.454Z,74.24
2019-06-01T00:31:21.488Z,74.85
2019-06-01T00:33:49.883Z,74.55
2019-06-01T00:36:17.636Z,74.97
2019-06-01T00:38:45.753Z,75.52
2019-06-01T00:41:13.601Z,74.75
2019-06-01T00:43:42.096Z,74.56
2019-06-01T00:46:10.039Z,73.87
2019-06-01T00:48:37.995Z,73.35
2019-06-01T00:51:05.924Z,73.30
2019-06-01T00:53:34.813Z,73.26
2019-06-01T00:56:02.719Z,73.09
2019-06-01T00:58:30.762Z,72.95
2019-06-01T01:00:58.767Z,72.54
2019-06-01T01:03:26.951Z,72.39
2019-06-01T01:05:54.953Z,72.22
2019-06-01T01:08:22.643Z,71.69
2019-06-01T01:10:51.075Z,71.22
2019-06-01T01:13:21.410Z,71.14
2019-06-01T01:15:49.702Z,70.37
2019-06-01T01:18:17.696Z,70.55
2019-06-01T01:20:45.970Z,70.66
2019-06-01T01:23:14.334Z,70.56
2019-06-01T01:25:42.368Z,70.79
2019-06-01T01:28:10.485Z,70.69
2019-06-01T01:30:38.453Z,70.06
2019-06-01T01:33:06.789Z,69.92
2019-06-01T01:35:34.814Z,70.01
2019-06-01T01:38:02.810Z,70.21
2019-06-01T01:40:31.107Z,70.80
2019-06-01T01:42:59.386Z,70.61
2019-06-01T01:45:27.546Z,70.85
2019-06-01T01:47:55.555Z,71.24
2019-06-01T01:50:25.084Z,71.54
2019-06-01T01:52:53.254Z,71.51
2019-06-01T01:55:21.746Z,71.43
2019-06-01T01:57:50.933Z,71.69
2019-06-01T02:00:35.329Z,71.67
2019-06-01T02:03:03.501Z,71.57
2019-06-01T02:05:31.387Z,71.49
2019-06-01T02:08:00.108Z,70.92
2019-06-01T02:10:28.508Z,70.56
2019-06-01T02:12:57.549Z,70.53
2019-06-01T02:15:25.430Z,70.49
2019-06-01T02:17:53.966Z,70.54
2019-06-01T02:20:21.733Z,69.96
2019-06-01T02:22:49.972Z,70.10
2019-06-01T02:25:17.762Z,70.20
2019-06-01T02:27:45.971Z,70.04
2019-06-01T02:30:15.136Z,70.01
2019-06-01T02:32:43.396Z,70.00
2019-06-01T02:35:11.691Z,70.01
2019-06-01T02:37:39.776Z,70.59
2019-06-01T02:40:09.476Z,70.50
2019-06-01T02:42:37.505Z,70.67
2019-06-01T02:45:09.430Z,70.39
2019-06-01T02:47:37.353Z,70.52
2019-06-01T02:50:06.523Z,70.82
2019-06-01T02:52:34.813Z,71.18
2019-06-01T02:55:04.580Z,70.64
2019-06-01T02:57:32.738Z,70.69
2019-06-01T03:00:00.637Z,70.87
2019-06-01T03:02:28.702Z,71.15
2019-06-01T03:04:57.095Z,70.82
2019-06-01T03:07:26.546Z,70.83
2019-06-01T03:09:54.878Z,71.29
2019-06-01T03:12:23.423Z,71.55
2019-06-01T03:14:51.938Z,72.18
2019-06-01T03:17:22.886Z,72.45
2019-06-01T03:19:52.069Z,72.70
2019-06-01T03:22:21.507Z,72.94
2019-06-01T03:24:51.210Z,73.05
2019-06-01T03:27:21.388Z,74.03
2019-06-01T03:29:54.540Z,74.41
2019-06-01T03:32:35.391Z,74.76
2019-06-01T03:34:52.310Z,74.89
2019-06-01T03:37:20.429Z,75.03
2019-06-01T03:39:48.971Z,75.39
2019-06-01T03:42:17.202Z,75.58
2019-06-01T03:44:45.282Z,75.60
2019-06-01T03:47:13.277Z,75.58
2019-06-01T03:49:43.059Z,75.51
2019-06-01T03:52:11.125Z,75.77
2019-06-01T03:54:39.234Z,76.69
2019-06-01T03:57:07.323Z,76.63
2019-06-01T03:59:36.924Z,76.50
2019-06-01T04:02:05.130Z,75.11
2019-06-01T04:04:33.324Z,74.64
2019-06-01T04:07:01.353Z,74.35
2019-06-01T04:09:29.586Z,74.69
2019-06-01T04:11:57.800Z,74.52
2019-06-01T04:14:25.651Z,74.40
2019-06-01T04:16:53.187Z,74.96
2019-06-01T04:19:20.905Z,75.10
2019-06-01T04:21:48.461Z,74.30
2019-06-01T04:24:16.094Z,74.59
2019-06-01T04:26:43.688Z,74.64
2019-06-01T04:29:12.566Z,74.58
2019-06-01T04:31:40.513Z,74.13
2019-06-01T04:34:08.843Z,73.62
2019-06-01T04:36:37.960Z,72.94
2019-06-01T04:39:07.346Z,72.52
2019-06-01T04:41:35.653Z,73.01
2019-06-01T04:44:03.826Z,72.17
2019-06-01T04:46:32.103Z,71.92
2019-06-01T04:49:00.330Z,71.72
2019-06-01T04:51:28.310Z,71.62
2019-06-01T04:53:56.495Z,71.09
2019-06-01T04:56:24.507Z,71.88
2019-06-01T04:58:52.495Z,70.61
2019-06-01T05:01:20.578Z,70.11
2019-06-01T05:03:48.619Z,69.79
2019-06-01T05:06:16.774Z,69.07
2019-06-01T05:08:44.663Z,69.17
2019-06-01T05:11:13.577Z,69.09
2019-06-01T05:13:41.570Z,68.54
2019-06-01T05:16:10.034Z,68.45
2019-06-01T05:18:38.392Z,67.82
2019-06-01T05:21:06.433Z,67.00
2019-06-01T05:23:34.276Z,67.83
2019-06-01T05:26:02.002Z,66.66
2019-06-01T05:28:29.543Z,66.14
2019-06-01T05:30:57.227Z,65.84
2019-06-01T05:33:36.916Z,66.41
2019-06-01T05:35:54.397Z,65.28
2019-06-01T05:38:21.927Z,64.70
2019-06-01T05:40:49.593Z,64.52
2019-06-01T05:43:19.220Z,64.30
2019-06-01T05:45:46.719Z,63.98
2019-06-01T05:48:20.827Z,64.43
2019-06-01T05:50:43.927Z,65.37
2019-06-01T05:53:12.478Z,63.84
2019-06-01T05:55:40.316Z,63.94
2019-06-01T05:58:08.017Z,64.20
2019-06-01T06:00:38.266Z,64.67
2019-06-01T06:03:05.902Z,63.52
2019-06-01T06:05:33.586Z,62.81
2019-06-01T06:08:01.144Z,61.17
2019-06-01T06:10:28.836Z,60.54
2019-06-01T06:12:56.576Z,60.26
2019-06-01T06:15:25.355Z,60.18
2019-06-01T06:17:53.071Z,59.63
2019-06-01T06:20:20.757Z,59.55
2019-06-01T06:22:48.489Z,59.76
2019-06-01T06:25:16.164Z,59.14
2019-06-01T06:27:44.098Z,59.02
2019-06-01T06:30:12.822Z,59.56
2019-06-01T06:32:40.498Z,59.66
2019-06-01T06:35:08.258Z,58.23
2019-06-01T06:37:35.987Z,58.29
2019-06-01T06:40:04.371Z,58.48
2019-06-01T06:42:32.440Z,56.60
2019-06-01T06:45:03.527Z,55.73
2019-06-01T06:47:30.680Z,55.43
2019-06-01T06:49:58.411Z,54.81
2019-06-01T06:52:26.028Z,54.30
2019-06-01T06:54:53.711Z,55.29
2019-06-01T06:57:22.129Z,54.44
2019-06-01T06:59:50.075Z,52.79
2019-06-01T07:02:18.770Z,54.75
2019-06-01T07:04:47.003Z,53.43
2019-06-01T07:07:14.992Z,52.88
2019-06-01T07:09:42.672Z,54.06
2019-06-01T07:12:10.706Z,51.85
2019-06-01T07:14:38.773Z,52.39
2019-06-01T07:17:06.834Z,50.31
2019-06-01T07:19:35.868Z,51.15
2019-06-01T07:22:04.073Z,50.15
2019-06-01T07:24:32.297Z,51.40
2019-06-01T07:27:00.217Z,52.80
2019-06-01T07:29:28.439Z,52.41
2019-06-01T07:31:56.436Z,50.66
2019-06-01T07:34:34.532Z,51.84
2019-06-01T07:36:55.758Z,52.40
2019-06-01T07:39:24.865Z,51.77
2019-06-01T07:41:52.949Z,52.42
2019-06-01T07:44:21.189Z,49.26
2019-06-01T07:46:49.156Z,49.53
2019-06-01T07:49:17.035Z,49.41
2019-06-01T07:51:45.094Z,50.92
2019-06-01T07:54:13.102Z,49.34
2019-06-01T07:56:41.243Z,47.74
2019-06-01T07:59:09.259Z,48.17
2019-06-01T08:01:37.673Z,47.67
2019-06-01T08:04:05.414Z,48.09
2019-06-01T08:06:33.247Z,49.08
2019-06-01T08:09:01.106Z,47.95
2019-06-01T08:11:32.747Z,48.73
2019-06-01T08:14:00.035Z,47.75
2019-06-01T08:16:27.995Z,48.58
2019-06-01T08:18:55.652Z,49.21
2019-06-01T08:21:26.046Z,51.22
2019-06-01T08:23:53.706Z,50.81
2019-06-01T08:26:22.200Z,50.00
2019-06-01T08:28:50.033Z,49.51
2019-06-01T08:31:17.803Z,49.72
2019-06-01T08:33:45.411Z,51.09
2019-06-01T08:36:13.124Z,52.09
2019-06-01T08:38:40.848Z,53.20
2019-06-01T08:41:08.575Z,52.20
2019-06-01T08:43:36.226Z,50.30
2019-06-01T08:46:04.104Z,51.31
2019-06-01T08:48:32.003Z,51.08
2019-06-01T08:51:00.170Z,51.08
2019-06-01T08:53:28.227Z,50.57
2019-06-01T08:55:55.938Z,48.95
2019-06-01T08:58:24.165Z,50.28
2019-06-01T09:00:52.207Z,49.42
2019-06-01T09:03:20.302Z,50.11
2019-06-01T09:05:48.283Z,50.40
2019-06-01T09:08:15.990Z,51.34
2019-06-01T09:10:43.568Z,50.65
2019-06-01T09:13:11.256Z,50.44
2019-06-01T09:15:38.877Z,49.71
2019-06-01T09:18:06.496Z,50.29
2019-06-01T09:20:37.508Z,48.28
2019-06-01T09:23:03.783Z,47.15
2019-06-01T09:25:31.761Z,46.53
2019-06-01T09:27:59.409Z,47.08
2019-06-01T09:30:27.978Z,44.85
2019-06-01T09:32:55.844Z,45.15
2019-06-01T09:35:40.717Z,45.28
2019-06-01T09:37:53.970Z,44.39
2019-06-01T09:40:22.112Z,41.84
2019-06-01T09:42:50.220Z,42.40
2019-06-01T09:45:18.469Z,42.13
2019-06-01T09:47:46.582Z,42.85
2019-06-01T09:50:14.490Z,43.79
2019-06-01T09:52:42.128Z,43.75
2019-06-01T09:55:10.137Z,44.09
2019-06-01T09:57:38.367Z,42.47
2019-06-01T10:00:07.319Z,42.69
2019-06-01T10:02:36.185Z,44.08
2019-06-01T10:05:05.478Z,43.46
2019-06-01T10:07:33.061Z,45.84
2019-06-01T10:10:01.217Z,43.26
2019-06-01T10:12:29.853Z,42.01
2019-06-01T10:14:58.012Z,41.83
2019-06-01T10:17:25.634Z,42.81
2019-06-01T10:19:53.369Z,41.77
2019-06-01T10:22:21.363Z,41.93
2019-06-01T10:24:49.347Z,41.16
2019-06-01T10:27:17.255Z,41.42
2019-06-01T10:29:45.381Z,41.23
2019-06-01T10:32:13.713Z,39.64
2019-06-01T10:34:42.105Z,42.96
2019-06-01T10:37:09.764Z,39.82
2019-06-01T10:39:37.420Z,38.94
2019-06-01T10:42:05.007Z,39.26
2019-06-01T10:44:37.907Z,38.94
2019-06-01T10:47:02.290Z,42.01
2019-06-01T10:49:29.955Z,40.76
2019-06-01T10:51:57.708Z,41.75
2019-06-01T10:54:25.687Z,41.87
2019-06-01T10:56:53.837Z,42.08
2019-06-01T10:59:21.925Z,41.33
2019-06-01T11:01:49.997Z,42.78
2019-06-01T11:04:18.284Z,44.48
2019-06-01T11:06:48.765Z,43.32
2019-06-01T11:09:16.592Z,41.75
2019-06-01T11:11:44.231Z,42.19
2019-06-01T11:14:11.902Z,44.08
2019-06-01T11:16:41.714Z,43.75
2019-06-01T11:19:09.781Z,39.81
2019-06-01T11:21:37.520Z,39.60
2019-06-01T11:24:05.182Z,40.38
2019-06-01T11:26:33.351Z,38.28
2019-06-01T11:29:01.384Z,41.47
2019-06-01T11:31:29.470Z,40.07
2019-06-01T11:33:57.446Z,38.93
2019-06-01T11:36:25.682Z,40.59
2019-06-01T11:38:53.730Z,38.06
2019-06-01T11:41:21.821Z,38.86
2019-06-01T11:43:49.970Z,36.89
2019-06-01T11:46:18.300Z,40.33
2019-06-01T11:48:47.324Z,37.28
2019-06-01T11:51:15.356Z,37.74
2019-06-01T11:53:43.569Z,38.14
2019-06-01T11:56:11.664Z,40.08
2019-06-01T11:58:39.857Z,39.20
2019-06-01T12:01:07.959Z,40.18
2019-06-01T12:03:36.021Z,40.46
2019-06-01T12:06:04.413Z,40.38
2019-06-01T12:08:34.175Z,39.91
2019-06-01T12:11:02.486Z,41.72
2019-06-01T12:13:30.455Z,41.23
2019-06-01T12:15:58.740Z,43.67
2019-06-01T12:18:27.256Z,43.74
2019-06-01T12:20:54.902Z,41.25
2019-06-01T12:23:22.498Z,39.47
2019-06-01T12:25:50.213Z,41.57
2019-06-01T12:28:17.807Z,39.75
2019-06-01T12:30:45.817Z,41.95
2019-06-01T12:33:13.803Z,41.20
2019-06-01T12:35:42.013Z,41.13
2019-06-01T12:38:09.999Z,38.86
2019-06-01T12:40:37.656Z,40.38
2019-06-01T12:43:05.420Z,37.41
2019-06-01T12:45:33.005Z,38.55
2019-06-01T12:48:00.824Z,38.82
2019-06-01T12:50:28.442Z,39.76
2019-06-01T12:52:56.171Z,37.93
2019-06-01T12:55:23.778Z,38.68
2019-06-01T12:57:51.726Z,38.55
2019-06-01T13:00:20.641Z,38.68
2019-06-01T13:02:59.269Z,39.54
2019-06-01T13:05:19.104Z,38.09
2019-06-01T13:07:57.540Z,36.91
2019-06-01T13:10:17.103Z,39.00
2019-06-01T13:12:45.236Z,38.85
2019-06-01T13:15:15.574Z,37.81
2019-06-01T13:17:45.155Z,37.64
2019-06-01T13:20:14.020Z,38.44
2019-06-01T13:22:41.909Z,38.53
2019-06-01T13:25:09.964Z,39.61
2019-06-01T13:27:40.806Z,40.25
2019-06-01T13:30:10.388Z,42.13
2019-06-01T13:32:38.349Z,42.05
2019-06-01T13:35:06.727Z,43.54
2019-06-01T13:37:34.477Z,44.01
2019-06-01T13:40:02.130Z,43.41
2019-06-01T13:42:29.951Z,44.21
2019-06-01T13:44:57.512Z,43.88
2019-06-01T13:47:25.183Z,41.31
2019-06-01T13:49:54.184Z,42.45
2019-06-01T13:52:22.288Z,41.56
2019-06-01T13:54:50.623Z,41.10
2019-06-01T13:57:18.755Z,41.97
2019-06-01T13:59:46.989Z,42.63
2019-06-01T14:02:14.634Z,42.97
2019-06-01T14:04:42.155Z,43.34
2019-06-01T14:07:09.798Z,42.45
2019-06-01T14:09:37.396Z,43.29
2019-06-01T14:12:05.100Z,42.53
2019-06-01T14:14:32.684Z,42.52
2019-06-01T14:17:00.324Z,41.43
2019-06-01T14:19:27.927Z,42.03
2019-06-01T14:21:55.967Z,42.21
2019-06-01T14:24:23.641Z,43.50
2019-06-01T14:26:52.329Z,42.73
2019-06-01T14:29:20.258Z,42.76
2019-06-01T14:31:48.500Z,43.57
2019-06-01T14:34:17.352Z,43.28
2019-06-01T14:36:46.310Z,45.00
2019-06-01T14:39:14.344Z,42.88
2019-06-01T14:41:42.289Z,43.84
2019-06-01T14:44:10.241Z,43.13
2019-06-01T14:46:52.954Z,44.33
2019-06-01T14:49:08.298Z,43.63
2019-06-01T14:51:36.247Z,43.67
2019-06-01T14:54:04.543Z,43.64
2019-06-01T14:56:32.445Z,42.57
2019-06-01T14:59:02.195Z,42.99
2019-06-01T15:01:32.866Z,44.14
2019-06-01T15:04:01.203Z,43.41
2019-06-01T15:06:29.108Z,43.60
2019-06-01T15:09:15.797Z,43.66
2019-06-01T15:11:27.174Z,42.71
2019-06-01T15:13:54.940Z,42.45
2019-06-01T15:16:22.656Z,43.82
2019-06-01T15:18:51.505Z,43.06
2019-06-01T15:21:19.341Z,42.87
2019-06-01T15:23:49.814Z,44.01
2019-06-01T15:26:17.579Z,43.50
2019-06-01T15:28:45.340Z,43.61
2019-06-01T15:31:13.036Z,43.87
2019-06-01T15:33:40.736Z,43.12
2019-06-01T15:36:08.348Z,43.50
2019-06-01T15:38:36.129Z,45.20
2019-06-01T15:41:03.892Z,44.63
2019-06-01T15:43:31.498Z,44.34
2019-06-01T15:45:59.850Z,45.11
2019-06-01T15:48:27.587Z,45.59
2019-06-01T15:51:00.609Z,45.07
2019-06-01T15:53:25.683Z,45.04
2019-06-01T15:55:54.314Z,45.77
2019-06-01T15:58:22.089Z,46.30
2019-06-01T16:00:49.746Z,45.40
2019-06-01T16:03:18.371Z,46.11
2019-06-01T16:05:46.198Z,45.09
2019-06-01T16:08:14.015Z,44.73
2019-06-01T16:10:41.916Z,45.39
2019-06-01T16:13:09.537Z,46.06
2019-06-01T16:15:37.476Z,45.33
2019-06-01T16:18:05.532Z,46.81
2019-06-01T16:20:33.493Z,44.68
2019-06-01T16:23:02.507Z,45.70
2019-06-01T16:25:30.335Z,45.19
2019-06-01T16:27:58.703Z,45.44
2019-06-01T16:30:26.474Z,44.54
2019-06-01T16:32:54.436Z,44.45
2019-06-01T16:35:22.277Z,44.53
2019-06-01T16:37:49.853Z,44.75
2019-06-01T16:40:17.537Z,45.47
2019-06-01T16:42:45.736Z,44.13
2019-06-01T16:45:14.391Z,45.89
2019-06-01T16:47:42.604Z,46.45
2019-06-01T16:50:11.937Z,47.66
2019-06-01T16:52:39.645Z,46.93
2019-06-01T16:55:08.559Z,50.05
2019-06-01T16:57:36.879Z,51.29
2019-06-01T17:00:07.037Z,52.67
2019-06-01T17:02:35.498Z,53.03
2019-06-01T17:05:03.345Z,54.01
2019-06-01T17:07:30.957Z,54.41
2019-06-01T17:10:03.447Z,55.01
2019-06-01T17:12:28.109Z,55.85
2019-06-01T17:14:56.790Z,55.98
2019-06-01T17:17:24.637Z,55.88
2019-06-01T17:19:52.321Z,55.93
2019-06-01T17:22:20.053Z,55.92
2019-06-01T17:24:47.598Z,55.76
2019-06-01T17:27:15.344Z,56.02
2019-06-01T17:29:42.912Z,56.45
2019-06-01T17:32:23.100Z,56.01
2019-06-01T17:34:40.175Z,57.07
2019-06-01T17:37:08.952Z,56.11
2019-06-01T17:39:36.752Z,57.01
2019-06-01T17:42:04.518Z,57.28
2019-06-01T17:44:32.162Z,58.01
2019-06-01T17:46:59.999Z,58.19
2019-06-01T17:49:27.662Z,59.58
2019-06-01T17:51:55.393Z,60.88
2019-06-01T17:54:22.980Z,58.59
2019-06-01T17:56:50.684Z,59.37
2019-06-01T17:59:18.275Z,59.93
2019-06-01T18:01:46.662Z,60.96
2019-06-01T18:04:14.273Z,61.87
2019-06-01T18:06:41.885Z,61.28
2019-06-01T18:09:10.284Z,62.48
2019-06-01T18:11:38.080Z,61.87
2019-06-01T18:14:08.231Z,61.86
2019-06-01T18:16:36.161Z,61.41
2019-06-01T18:19:04.171Z,63.00
2019-06-01T18:21:33.496Z,63.00
2019-06-01T18:24:04.557Z,62.42
2019-06-01T18:26:32.566Z,62.71
2019-06-01T18:29:00.540Z,63.53
2019-06-01T18:31:28.753Z,63.53
2019-06-01T18:33:56.753Z,63.61
2019-06-01T18:36:24.789Z,62.76
2019-06-01T18:38:53.130Z,63.46
2019-06-01T18:41:21.005Z,63.69
2019-06-01T18:43:49.087Z,63.59
2019-06-01T18:46:17.392Z,63.55
2019-06-01T18:48:45.463Z,63.60
2019-06-01T18:51:14.467Z,63.25
2019-06-01T18:53:42.792Z,64.48
2019-06-01T18:56:10.752Z,64.17
2019-06-01T18:58:38.381Z,64.49
2019-06-01T19:01:06.475Z,64.73
2019-06-01T19:03:34.511Z,65.59
2019-06-01T19:06:02.414Z,66.04
2019-06-01T19:08:30.078Z,66.17
2019-06-01T19:10:58.110Z,66.97
2019-06-01T19:13:26.007Z,66.82
2019-06-01T19:15:53.909Z,67.64
2019-06-01T19:18:21.699Z,68.82
2019-06-01T19:20:49.255Z,67.85
2019-06-01T19:23:21.724Z,68.19
2019-06-01T19:25:46.358Z,68.33
2019-06-01T19:28:15.275Z,67.75
2019-06-01T19:30:44.054Z,69.44
2019-06-01T19:33:14.282Z,69.36
2019-06-01T19:35:41.235Z,69.86
2019-06-01T19:38:09.148Z,69.94
2019-06-01T19:40:38.124Z,69.96
2019-06-01T19:43:07.342Z,70.17
2019-06-01T19:45:36.372Z,70.73
2019-06-01T19:48:06.057Z,69.91
2019-06-01T19:50:33.801Z,69.56
2019-06-01T19:53:02.804Z,69.92
2019-06-01T19:55:30.554Z,69.33
2019-06-01T19:57:59.925Z,68.86
2019-06-01T20:00:28.919Z,69.36
2019-06-01T20:02:56.551Z,69.32
2019-06-01T20:05:24.303Z,69.39
2019-06-01T20:07:51.904Z,70.28
2019-06-01T20:10:19.452Z,70.08
2019-06-01T20:12:47.228Z,70.10
2019-06-01T20:15:15.550Z,70.84
2019-06-01T20:17:43.333Z,71.28
2019-06-01T20:20:11.228Z,71.72
2019-06-01T20:22:38.863Z,71.35
2019-06-01T20:25:06.865Z,72.11
2019-06-01T20:27:34.567Z,72.25
2019-06-01T20:30:02.311Z,72.27
2019-06-01T20:32:30.364Z,72.87
2019-06-01T20:34:57.959Z,72.75
2019-06-01T20:37:25.617Z,73.44
2019-06-01T20:39:53.211Z,73.54
2019-06-01T20:42:31.362Z,72.18
2019-06-01T20:44:50.689Z,70.89
2019-06-01T20:47:18.922Z,71.13
2019-06-01T20:49:47.604Z,71.33
2019-06-01T20:52:16.786Z,71.61
2019-06-01T20:54:44.752Z,71.81
2019-06-01T20:57:13.312Z,72.68
2019-06-01T20:59:40.973Z,73.49
2019-06-01T21:02:08.560Z,73.20
2019-06-01T21:04:36.349Z,72.77
2019-06-01T21:07:04.089Z,73.23
2019-06-01T21:09:31.755Z,73.93
2019-06-01T21:11:59.525Z,73.99
2019-06-01T21:14:27.141Z,74.55
2019-06-01T21:16:54.743Z,74.66
2019-06-01T21:19:22.524Z,74.93
2019-06-01T21:21:50.458Z,75.03
2019-06-01T21:24:18.794Z,73.64
2019-06-01T21:26:46.834Z,72.10
2019-06-01T21:29:14.684Z,72.04
2019-06-01T21:31:42.449Z,73.56
2019-06-01T21:34:10.584Z,70.14
2019-06-01T21:36:41.563Z,71.04
2019-06-01T21:39:08.003Z,71.32
2019-06-01T21:41:35.862Z,72.47
2019-06-01T21:44:03.694Z,74.17
2019-06-01T21:46:31.369Z,75.11
2019-06-01T21:48:58.997Z,75.85
2019-06-01T21:51:26.685Z,76.83
2019-06-01T21:53:54.314Z,77.01
2019-06-01T21:56:23.714Z,76.43
2019-06-01T21:58:51.510Z,77.41
2019-06-01T22:01:19.146Z,78.03
2019-06-01T22:03:46.717Z,78.56
2019-06-01T22:06:14.343Z,78.23
2019-06-01T22:08:51.073Z,78.12
2019-06-01T22:11:11.454Z,78.61
2019-06-01T22:13:39.004Z,78.81
2019-06-01T22:16:06.978Z,78.07
2019-06-01T22:18:34.987Z,78.80
2019-06-01T22:21:02.704Z,79.30
2019-06-01T22:23:30.455Z,80.07
2019-06-01T22:25:58.160Z,79.79
2019-06-01T22:28:26.361Z,79.86
2019-06-01T22:30:54.122Z,79.17
2019-06-01T22:33:23.010Z,80.05
2019-06-01T22:35:50.824Z,80.48
2019-06-01T22:38:19.606Z,80.58
2019-06-01T22:40:47.445Z,80.88
2019-06-01T22:43:15.184Z,80.83
2019-06-01T22:45:42.879Z,81.02
2019-06-01T22:48:10.669Z,81.17
2019-06-01T22:50:38.529Z,81.47
2019-06-01T22:53:06.154Z,81.57
2019-06-01T22:55:33.955Z,81.80
2019-06-01T22:58:01.636Z,81.82
2019-06-01T23:00:29.866Z,81.12
2019-06-01T23:02:57.701Z,81.99
2019-06-01T23:05:25.277Z,82.24
2019-06-01T23:07:52.968Z,82.12
2019-06-01T23:10:27.434Z,82.11
2019-06-01T23:12:50.063Z,82.71
2019-06-01T23:15:17.628Z,82.75
2019-06-01T23:17:45.287Z,83.27
2019-06-01T23:20:12.914Z,83.21
2019-06-01T23:22:40.570Z,83.32
2019-06-01T23:25:08.234Z,83.03
2019-06-01T23:27:35.896Z,82.39
2019-06-01T23:30:04.142Z,81.62
2019-06-01T23:32:32.705Z,82.10
2019-06-01T23:35:00.479Z,82.97
2019-06-01T23:37:28.831Z,83.18
2019-06-01T23:39:56.700Z,83.31
2019-06-01T23:42:24.606Z,83.54
2019-06-01T23:44:52.351Z,83.52
2019-06-01T23:47:19.909Z,83.72
2019-06-01T23:49:47.610Z,83.21
2019-06-01T23:52:15.231Z,84.13
2019-06-01T23:54:43.733Z,84.02
2019-06-01T23:57:11.346Z,84.45
2019-06-01T23:59:38.978Z,84.63
